sensor_id;sensor_type;location;lat;lon;timestamp;temperature;humidity
54930;DHT22;40833;53.238;6.576;2022-12-08T00:01:09;3.40;99.90
54930;DHT22;40833;53.238;6.576;2022-12-08T00:03:35;2.40;99.90
54930;DHT22;40833;53.238;6.576;2022-12-08T00:06:03;2.30;99.90
54930;DHT22;40833;53.238;6.576;2022-12-08T00:08:48;2.30;99.90
54930;DHT22;40833;53.238;6.576;2022-12-08T00:11:32;2.30;99.90
54930;DHT22;40833;53.238;6.576;2022-12-08T00:13:59;2.20;99.90
54930;DHT22;40833;53.238;6.576;2022-12-08T00:16:24;2.20;99.90
54930;DHT22;40833;53.238;6.576;2022-12-08T00:18:50;3.20;99.90
54930;DHT22;40833;53.238;6.576;2022-12-08T00:21:16;2.20;99.90
54930;DHT22;40833;53.238;6.576;2022-12-08T00:23:41;3.30;99.90
54930;DHT22;40833;53.238;6.576;2022-12-08T00:26:07;3.30;99.90
54930;DHT22;40833;53.238;6.576;2022-12-08T00:28:33;3.10;99.90
54930;DHT22;40833;53.238;6.576;2022-12-08T00:30:59;4.00;99.90
54930;DHT22;40833;53.238;6.576;2022-12-08T00:33:27;2.30;99.90
54930;DHT22;40833;53.238;6.576;2022-12-08T00:35:52;2.40;99.90
54930;DHT22;40833;53.238;6.576;2022-12-08T00:38:18;2.30;99.90
54930;DHT22;40833;53.238;6.576;2022-12-08T00:40:45;4.90;99.90
54930;DHT22;40833;53.238;6.576;2022-12-08T00:43:11;4.60;99.90
54930;DHT22;40833;53.238;6.576;2022-12-08T00:45:37;2.40;99.90
54930;DHT22;40833;53.238;6.576;2022-12-08T00:48:02;4.60;99.90
54930;DHT22;40833;53.238;6.576;2022-12-08T00:50:28;2.50;99.90
54930;DHT22;40833;53.238;6.576;2022-12-08T00:52:54;5.10;99.90
54930;DHT22;40833;53.238;6.576;2022-12-08T00:55:19;3.50;99.90
54930;DHT22;40833;53.238;6.576;2022-12-08T00:57:45;2.60;99.90
54930;DHT22;40833;53.238;6.576;2022-12-08T01:00:11;3.20;99.90
54930;DHT22;40833;53.238;6.576;2022-12-08T01:02:37;2.40;99.90
54930;DHT22;40833;53.238;6.576;2022-12-08T01:05:02;2.40;99.90
54930;DHT22;40833;53.238;6.576;2022-12-08T01:07:28;2.30;99.90
54930;DHT22;40833;53.238;6.576;2022-12-08T01:09:54;2.30;99.90
54930;DHT22;40833;53.238;6.576;2022-12-08T01:12:20;3.40;99.90
54930;DHT22;40833;53.238;6.576;2022-12-08T01:14:45;3.90;99.90
54930;DHT22;40833;53.238;6.576;2022-12-08T01:17:11;2.30;99.90
54930;DHT22;40833;53.238;6.576;2022-12-08T01:19:37;2.30;99.90
54930;DHT22;40833;53.238;6.576;2022-12-08T01:22:02;3.60;99.90
54930;DHT22;40833;53.238;6.576;2022-12-08T01:24:28;2.90;99.90
54930;DHT22;40833;53.238;6.576;2022-12-08T01:26:53;4.90;99.90
54930;DHT22;40833;53.238;6.576;2022-12-08T01:29:19;5.10;99.90
54930;DHT22;40833;53.238;6.576;2022-12-08T01:31:45;2.70;99.90
54930;DHT22;40833;53.238;6.576;2022-12-08T01:34:11;2.40;99.90
54930;DHT22;40833;53.238;6.576;2022-12-08T01:36:37;2.40;99.90
54930;DHT22;40833;53.238;6.576;2022-12-08T01:39:09;2.30;99.90
54930;DHT22;40833;53.238;6.576;2022-12-08T01:41:38;2.40;99.90
54930;DHT22;40833;53.238;6.576;2022-12-08T01:46:34;4.20;99.90
54930;DHT22;40833;53.238;6.576;2022-12-08T01:49:20;2.40;99.90
54930;DHT22;40833;53.238;6.576;2022-12-08T01:54:12;2.50;99.90
54930;DHT22;40833;53.238;6.576;2022-12-08T01:57:02;4.90;99.90
54930;DHT22;40833;53.238;6.576;2022-12-08T01:59:32;3.70;99.90
54930;DHT22;40833;53.238;6.576;2022-12-08T02:02:00;3.40;99.90
54930;DHT22;40833;53.238;6.576;2022-12-08T02:04:25;2.50;99.90
54930;DHT22;40833;53.238;6.576;2022-12-08T02:06:52;3.40;99.90
54930;DHT22;40833;53.238;6.576;2022-12-08T02:09:19;2.60;99.90
54930;DHT22;40833;53.238;6.576;2022-12-08T02:11:46;4.80;99.90
54930;DHT22;40833;53.238;6.576;2022-12-08T02:14:12;5.10;99.90
54930;DHT22;40833;53.238;6.576;2022-12-08T02:16:46;3.00;99.90
54930;DHT22;40833;53.238;6.576;2022-12-08T02:22:15;2.70;99.90
54930;DHT22;40833;53.238;6.576;2022-12-08T02:24:52;2.50;99.90
54930;DHT22;40833;53.238;6.576;2022-12-08T02:38:05;3.20;99.90
54930;DHT22;40833;53.238;6.576;2022-12-08T02:40:41;2.30;99.90
54930;DHT22;40833;53.238;6.576;2022-12-08T02:43:47;2.30;99.90
54930;DHT22;40833;53.238;6.576;2022-12-08T02:46:22;3.50;99.90
54930;DHT22;40833;53.238;6.576;2022-12-08T02:48:50;2.10;99.90
54930;DHT22;40833;53.238;6.576;2022-12-08T02:51:17;4.20;99.90
54930;DHT22;40833;53.238;6.576;2022-12-08T02:53:43;2.00;99.90
54930;DHT22;40833;53.238;6.576;2022-12-08T03:07:07;2.00;99.90
54930;DHT22;40833;53.238;6.576;2022-12-08T03:09:37;3.40;99.90
54930;DHT22;40833;53.238;6.576;2022-12-08T03:12:25;3.60;99.90
54930;DHT22;40833;53.238;6.576;2022-12-08T03:14:54;2.00;99.90
54930;DHT22;40833;53.238;6.576;2022-12-08T03:17:23;2.10;99.90
54930;DHT22;40833;53.238;6.576;2022-12-08T03:19:52;2.10;99.90
54930;DHT22;40833;53.238;6.576;2022-12-08T03:22:21;2.10;99.90
54930;DHT22;40833;53.238;6.576;2022-12-08T03:24:49;3.10;99.90
54930;DHT22;40833;53.238;6.576;2022-12-08T03:27:27;2.20;99.90
54930;DHT22;40833;53.238;6.576;2022-12-08T03:29:55;2.20;99.90
54930;DHT22;40833;53.238;6.576;2022-12-08T03:32:29;2.20;99.90
54930;DHT22;40833;53.238;6.576;2022-12-08T03:34:58;2.10;99.90
54930;DHT22;40833;53.238;6.576;2022-12-08T03:37:27;2.10;99.90
54930;DHT22;40833;53.238;6.576;2022-12-08T03:39:53;2.20;99.90
54930;DHT22;40833;53.238;6.576;2022-12-08T03:42:18;3.10;99.90
54930;DHT22;40833;53.238;6.576;2022-12-08T03:44:44;2.10;99.90
54930;DHT22;40833;53.238;6.576;2022-12-08T03:47:10;3.90;99.90
54930;DHT22;40833;53.238;6.576;2022-12-08T03:49:35;2.10;99.90
54930;DHT22;40833;53.238;6.576;2022-12-08T03:52:01;2.70;99.90
54930;DHT22;40833;53.238;6.576;2022-12-08T03:54:27;2.40;99.90
54930;DHT22;40833;53.238;6.576;2022-12-08T03:56:52;3.10;99.90
54930;DHT22;40833;53.238;6.576;2022-12-08T03:59:18;2.10;99.90
54930;DHT22;40833;53.238;6.576;2022-12-08T04:04:10;2.20;99.90
54930;DHT22;40833;53.238;6.576;2022-12-08T04:06:35;2.20;99.90
54930;DHT22;40833;53.238;6.576;2022-12-08T04:09:01;2.20;99.90
54930;DHT22;40833;53.238;6.576;2022-12-08T04:11:27;2.20;99.90
54930;DHT22;40833;53.238;6.576;2022-12-08T04:13:53;2.20;99.90
54930;DHT22;40833;53.238;6.576;2022-12-08T04:16:23;2.70;99.90
54930;DHT22;40833;53.238;6.576;2022-12-08T04:18:50;2.20;99.90
54930;DHT22;40833;53.238;6.576;2022-12-08T04:21:16;2.20;99.90
54930;DHT22;40833;53.238;6.576;2022-12-08T04:23:42;2.20;99.90
54930;DHT22;40833;53.238;6.576;2022-12-08T04:26:08;3.70;99.90
54930;DHT22;40833;53.238;6.576;2022-12-08T04:28:35;4.00;99.90
54930;DHT22;40833;53.238;6.576;2022-12-08T04:31:01;2.20;99.90
54930;DHT22;40833;53.238;6.576;2022-12-08T04:33:27;2.20;99.90
54930;DHT22;40833;53.238;6.576;2022-12-08T04:35:52;2.20;99.90
54930;DHT22;40833;53.238;6.576;2022-12-08T04:38:18;2.20;99.90
54930;DHT22;40833;53.238;6.576;2022-12-08T04:40:44;2.20;99.90
54930;DHT22;40833;53.238;6.576;2022-12-08T04:43:09;2.20;99.90
54930;DHT22;40833;53.238;6.576;2022-12-08T04:45:39;2.20;99.90
54930;DHT22;40833;53.238;6.576;2022-12-08T04:48:05;2.20;99.90
54930;DHT22;40833;53.238;6.576;2022-12-08T04:50:31;2.30;99.90
54930;DHT22;40833;53.238;6.576;2022-12-08T04:52:56;2.70;99.90
54930;DHT22;40833;53.238;6.576;2022-12-08T04:55:22;2.20;99.90
54930;DHT22;40833;53.238;6.576;2022-12-08T04:57:48;2.30;99.90
54930;DHT22;40833;53.238;6.576;2022-12-08T05:00:14;5.00;99.90
54930;DHT22;40833;53.238;6.576;2022-12-08T05:02:40;2.30;99.90
54930;DHT22;40833;53.238;6.576;2022-12-08T05:05:06;2.50;99.90
54930;DHT22;40833;53.238;6.576;2022-12-08T05:07:32;2.20;99.90
54930;DHT22;40833;53.238;6.576;2022-12-08T05:09:58;2.20;99.90
54930;DHT22;40833;53.238;6.576;2022-12-08T05:12:24;3.50;99.90
54930;DHT22;40833;53.238;6.576;2022-12-08T05:14:49;2.20;99.90
54930;DHT22;40833;53.238;6.576;2022-12-08T05:17:16;2.20;99.90
54930;DHT22;40833;53.238;6.576;2022-12-08T05:19:42;2.20;99.90
54930;DHT22;40833;53.238;6.576;2022-12-08T05:22:08;2.20;99.90
54930;DHT22;40833;53.238;6.576;2022-12-08T05:24:34;2.20;99.90
54930;DHT22;40833;53.238;6.576;2022-12-08T05:26:59;4.00;99.90
54930;DHT22;40833;53.238;6.576;2022-12-08T05:29:25;2.20;99.90
54930;DHT22;40833;53.238;6.576;2022-12-08T05:31:51;2.20;99.90
54930;DHT22;40833;53.238;6.576;2022-12-08T05:34:16;2.60;99.90
54930;DHT22;40833;53.238;6.576;2022-12-08T05:36:42;4.30;99.90
54930;DHT22;40833;53.238;6.576;2022-12-08T05:39:11;2.50;99.90
54930;DHT22;40833;53.238;6.576;2022-12-08T05:41:38;3.00;99.90
54930;DHT22;40833;53.238;6.576;2022-12-08T05:44:03;2.10;99.90
54930;DHT22;40833;53.238;6.576;2022-12-08T05:46:29;2.10;99.90
54930;DHT22;40833;53.238;6.576;2022-12-08T05:48:55;2.10;99.90
54930;DHT22;40833;53.238;6.576;2022-12-08T05:51:22;2.10;99.90
54930;DHT22;40833;53.238;6.576;2022-12-08T05:53:49;3.20;99.90
54930;DHT22;40833;53.238;6.576;2022-12-08T05:56:15;2.30;99.90
54930;DHT22;40833;53.238;6.576;2022-12-08T05:58:41;2.00;99.90
54930;DHT22;40833;53.238;6.576;2022-12-08T06:01:06;4.30;99.90
54930;DHT22;40833;53.238;6.576;2022-12-08T06:03:33;2.00;99.90
54930;DHT22;40833;53.238;6.576;2022-12-08T06:05:58;2.70;99.90
54930;DHT22;40833;53.238;6.576;2022-12-08T06:08:24;2.00;99.90
54930;DHT22;40833;53.238;6.576;2022-12-08T06:10:50;2.60;99.90
54930;DHT22;40833;53.238;6.576;2022-12-08T06:13:15;2.00;99.90
54930;DHT22;40833;53.238;6.576;2022-12-08T06:15:41;2.70;99.90
54930;DHT22;40833;53.238;6.576;2022-12-08T06:18:09;4.80;99.90
54930;DHT22;40833;53.238;6.576;2022-12-08T06:20:35;1.80;99.90
54930;DHT22;40833;53.238;6.576;2022-12-08T06:23:00;3.40;99.90
54930;DHT22;40833;53.238;6.576;2022-12-08T06:25:27;2.70;99.90
54930;DHT22;40833;53.238;6.576;2022-12-08T06:27:53;3.60;99.90
54930;DHT22;40833;53.238;6.576;2022-12-08T06:30:19;1.70;99.90
54930;DHT22;40833;53.238;6.576;2022-12-08T06:32:44;1.70;99.90
54930;DHT22;40833;53.238;6.576;2022-12-08T06:37:36;1.70;99.90
54930;DHT22;40833;53.238;6.576;2022-12-08T06:40:02;1.60;99.90
54930;DHT22;40833;53.238;6.576;2022-12-08T06:42:28;1.50;99.90
54930;DHT22;40833;53.238;6.576;2022-12-08T06:45:10;1.50;99.90
54930;DHT22;40833;53.238;6.576;2022-12-08T06:47:36;1.50;99.90
54930;DHT22;40833;53.238;6.576;2022-12-08T06:50:02;1.80;99.90
54930;DHT22;40833;53.238;6.576;2022-12-08T06:52:27;1.60;99.90
54930;DHT22;40833;53.238;6.576;2022-12-08T06:54:53;1.60;99.90
54930;DHT22;40833;53.238;6.576;2022-12-08T06:57:19;4.10;99.90
54930;DHT22;40833;53.238;6.576;2022-12-08T06:59:44;1.40;99.90
54930;DHT22;40833;53.238;6.576;2022-12-08T07:02:10;3.20;99.90
54930;DHT22;40833;53.238;6.576;2022-12-08T07:04:36;2.40;99.90
54930;DHT22;40833;53.238;6.576;2022-12-08T07:07:01;2.80;99.90
54930;DHT22;40833;53.238;6.576;2022-12-08T07:09:27;2.70;99.90
54930;DHT22;40833;53.238;6.576;2022-12-08T07:11:53;1.30;99.90
54930;DHT22;40833;53.238;6.576;2022-12-08T07:14:19;1.90;99.90
54930;DHT22;40833;53.238;6.576;2022-12-08T07:19:15;1.30;99.90
54930;DHT22;40833;53.238;6.576;2022-12-08T07:21:41;1.20;99.90
54930;DHT22;40833;53.238;6.576;2022-12-08T07:24:07;4.10;99.90
54930;DHT22;40833;53.238;6.576;2022-12-08T07:26:32;1.10;99.90
54930;DHT22;40833;53.238;6.576;2022-12-08T07:28:59;1.10;99.90
54930;DHT22;40833;53.238;6.576;2022-12-08T07:31:25;1.20;99.90
54930;DHT22;40833;53.238;6.576;2022-12-08T07:33:51;1.10;99.90
54930;DHT22;40833;53.238;6.576;2022-12-08T07:36:17;1.00;99.90
54930;DHT22;40833;53.238;6.576;2022-12-08T07:38:43;1.00;99.90
54930;DHT22;40833;53.238;6.576;2022-12-08T07:41:14;1.00;99.90
54930;DHT22;40833;53.238;6.576;2022-12-08T07:43:40;2.00;99.90
54930;DHT22;40833;53.238;6.576;2022-12-08T07:46:06;3.80;99.90
54930;DHT22;40833;53.238;6.576;2022-12-08T07:48:32;3.30;99.90
54930;DHT22;40833;53.238;6.576;2022-12-08T07:51:02;2.20;99.90
54930;DHT22;40833;53.238;6.576;2022-12-08T07:53:28;2.50;99.90
54930;DHT22;40833;53.238;6.576;2022-12-08T07:55:54;1.30;99.90
54930;DHT22;40833;53.238;6.576;2022-12-08T07:58:20;0.90;99.90
54930;DHT22;40833;53.238;6.576;2022-12-08T08:00:45;3.30;99.90
54930;DHT22;40833;53.238;6.576;2022-12-08T08:03:11;0.80;99.90
54930;DHT22;40833;53.238;6.576;2022-12-08T08:05:37;2.00;99.90
54930;DHT22;40833;53.238;6.576;2022-12-08T08:08:03;0.90;99.90
54930;DHT22;40833;53.238;6.576;2022-12-08T08:10:29;0.90;99.90
54930;DHT22;40833;53.238;6.576;2022-12-08T08:12:57;1.20;99.90
54930;DHT22;40833;53.238;6.576;2022-12-08T08:15:24;2.40;99.90
54930;DHT22;40833;53.238;6.576;2022-12-08T08:17:50;1.00;99.90
54930;DHT22;40833;53.238;6.576;2022-12-08T08:20:16;1.10;99.90
54930;DHT22;40833;53.238;6.576;2022-12-08T08:22:45;1.60;99.90
54930;DHT22;40833;53.238;6.576;2022-12-08T08:25:10;1.50;99.90
54930;DHT22;40833;53.238;6.576;2022-12-08T08:27:36;2.40;99.90
54930;DHT22;40833;53.238;6.576;2022-12-08T08:30:06;1.40;99.90
54930;DHT22;40833;53.238;6.576;2022-12-08T08:32:33;1.40;99.90
54930;DHT22;40833;53.238;6.576;2022-12-08T08:34:59;1.40;99.90
54930;DHT22;40833;53.238;6.576;2022-12-08T08:37:25;2.10;99.90
54930;DHT22;40833;53.238;6.576;2022-12-08T08:39:51;4.50;99.90
54930;DHT22;40833;53.238;6.576;2022-12-08T08:42:17;1.40;99.90
54930;DHT22;40833;53.238;6.576;2022-12-08T08:44:43;2.50;99.90
54930;DHT22;40833;53.238;6.576;2022-12-08T08:47:09;1.10;99.90
54930;DHT22;40833;53.238;6.576;2022-12-08T08:49:35;1.20;99.90
54930;DHT22;40833;53.238;6.576;2022-12-08T08:52:01;1.20;99.90
54930;DHT22;40833;53.238;6.576;2022-12-08T08:54:30;1.30;99.90
54930;DHT22;40833;53.238;6.576;2022-12-08T08:56:57;3.00;99.90
54930;DHT22;40833;53.238;6.576;2022-12-08T08:59:24;3.30;99.90
54930;DHT22;40833;53.238;6.576;2022-12-08T09:01:50;2.40;99.90
54930;DHT22;40833;53.238;6.576;2022-12-08T09:04:16;3.10;99.90
54930;DHT22;40833;53.238;6.576;2022-12-08T09:06:41;1.30;99.90
54930;DHT22;40833;53.238;6.576;2022-12-08T09:09:09;1.50;99.90
54930;DHT22;40833;53.238;6.576;2022-12-08T09:11:35;3.20;99.90
54930;DHT22;40833;53.238;6.576;2022-12-08T09:14:00;2.00;99.90
54930;DHT22;40833;53.238;6.576;2022-12-08T09:16:26;3.60;99.90
54930;DHT22;40833;53.238;6.576;2022-12-08T09:18:52;1.90;99.90
54930;DHT22;40833;53.238;6.576;2022-12-08T09:21:21;2.00;99.90
54930;DHT22;40833;53.238;6.576;2022-12-08T09:23:53;2.30;99.90
54930;DHT22;40833;53.238;6.576;2022-12-08T09:26:19;2.20;99.90
54930;DHT22;40833;53.238;6.576;2022-12-08T09:28:49;2.20;99.90
54930;DHT22;40833;53.238;6.576;2022-12-08T09:31:16;4.10;99.90
54930;DHT22;40833;53.238;6.576;2022-12-08T09:33:42;2.30;99.90
54930;DHT22;40833;53.238;6.576;2022-12-08T09:36:09;2.50;99.90
54930;DHT22;40833;53.238;6.576;2022-12-08T09:38:36;2.30;99.90
54930;DHT22;40833;53.238;6.576;2022-12-08T09:41:03;2.30;99.90
54930;DHT22;40833;53.238;6.576;2022-12-08T09:46:04;2.30;99.90
54930;DHT22;40833;53.238;6.576;2022-12-08T09:48:34;2.20;99.90
54930;DHT22;40833;53.238;6.576;2022-12-08T09:51:02;2.20;99.90
54930;DHT22;40833;53.238;6.576;2022-12-08T09:53:48;2.20;99.90
54930;DHT22;40833;53.238;6.576;2022-12-08T09:56:18;2.20;99.90
54930;DHT22;40833;53.238;6.576;2022-12-08T09:58:56;4.00;99.90
54930;DHT22;40833;53.238;6.576;2022-12-08T10:01:26;2.10;99.90
54930;DHT22;40833;53.238;6.576;2022-12-08T10:03:53;2.00;99.90
54930;DHT22;40833;53.238;6.576;2022-12-08T10:15:40;2.00;99.90
54930;DHT22;40833;53.238;6.576;2022-12-08T10:18:19;2.00;99.90
54930;DHT22;40833;53.238;6.576;2022-12-08T10:20:49;2.10;99.90
54930;DHT22;40833;53.238;6.576;2022-12-08T10:23:32;2.10;99.90
54930;DHT22;40833;53.238;6.576;2022-12-08T10:26:04;2.20;99.90
54930;DHT22;40833;53.238;6.576;2022-12-08T10:28:31;2.60;99.90
54930;DHT22;40833;53.238;6.576;2022-12-08T10:30:57;2.30;99.90
54930;DHT22;40833;53.238;6.576;2022-12-08T10:33:23;2.40;99.90
54930;DHT22;40833;53.238;6.576;2022-12-08T10:35:54;2.50;99.90
54930;DHT22;40833;53.238;6.576;2022-12-08T10:40:59;2.70;99.90
54930;DHT22;40833;53.238;6.576;2022-12-08T10:43:27;2.80;99.90
54930;DHT22;40833;53.238;6.576;2022-12-08T10:45:53;2.90;99.90
54930;DHT22;40833;53.238;6.576;2022-12-08T10:48:29;3.00;99.90
54930;DHT22;40833;53.238;6.576;2022-12-08T10:50:58;3.00;99.90
54930;DHT22;40833;53.238;6.576;2022-12-08T10:53:29;3.20;99.90
54930;DHT22;40833;53.238;6.576;2022-12-08T10:58:41;4.40;99.90
54930;DHT22;40833;53.238;6.576;2022-12-08T11:03:49;3.20;99.90
54930;DHT22;40833;53.238;6.576;2022-12-08T11:06:22;3.30;99.90
54930;DHT22;40833;53.238;6.576;2022-12-08T11:08:56;4.10;99.90
54930;DHT22;40833;53.238;6.576;2022-12-08T11:14:21;3.40;99.90
54930;DHT22;40833;53.238;6.576;2022-12-08T11:16:52;3.50;99.90
54930;DHT22;40833;53.238;6.576;2022-12-08T11:19:19;6.30;99.90
54930;DHT22;40833;53.238;6.576;2022-12-08T11:21:46;4.10;99.90
54930;DHT22;40833;53.238;6.576;2022-12-08T11:24:20;3.60;99.90
54930;DHT22;40833;53.238;6.576;2022-12-08T11:26:59;3.60;99.90
54930;DHT22;40833;53.238;6.576;2022-12-08T11:29:27;3.60;99.90
54930;DHT22;40833;53.238;6.576;2022-12-08T11:31:59;3.60;99.90
54930;DHT22;40833;53.238;6.576;2022-12-08T11:36:59;3.60;99.90
54930;DHT22;40833;53.238;6.576;2022-12-08T11:39:26;3.60;99.90
54930;DHT22;40833;53.238;6.576;2022-12-08T11:41:53;3.60;99.90
54930;DHT22;40833;53.238;6.576;2022-12-08T11:44:34;5.00;99.90
54930;DHT22;40833;53.238;6.576;2022-12-08T11:50:00;3.80;99.90
54930;DHT22;40833;53.238;6.576;2022-12-08T11:52:31;4.20;99.90
54930;DHT22;40833;53.238;6.576;2022-12-08T12:01:02;3.60;99.90
54930;DHT22;40833;53.238;6.576;2022-12-08T12:03:37;3.50;99.90
54930;DHT22;40833;53.238;6.576;2022-12-08T12:09:05;3.60;99.90
54930;DHT22;40833;53.238;6.576;2022-12-08T12:11:46;3.50;99.90
54930;DHT22;40833;53.238;6.576;2022-12-08T12:19:55;3.40;99.90
54930;DHT22;40833;53.238;6.576;2022-12-08T12:22:22;5.50;99.90
54930;DHT22;40833;53.238;6.576;2022-12-08T12:24:49;3.40;99.90
54930;DHT22;40833;53.238;6.576;2022-12-08T12:27:32;3.40;99.90
54930;DHT22;40833;53.238;6.576;2022-12-08T12:30:03;3.50;99.90
54930;DHT22;40833;53.238;6.576;2022-12-08T12:32:50;3.50;99.90
54930;DHT22;40833;53.238;6.576;2022-12-08T12:35:35;3.60;99.90
54930;DHT22;40833;53.238;6.576;2022-12-08T12:38:25;3.60;99.90
54930;DHT22;40833;53.238;6.576;2022-12-08T12:41:13;3.70;99.90
54930;DHT22;40833;53.238;6.576;2022-12-08T12:45:02;4.00;99.90
54930;DHT22;40833;53.238;6.576;2022-12-08T12:46:59;3.70;99.90
54930;DHT22;40833;53.238;6.576;2022-12-08T12:50:03;3.90;99.90
54930;DHT22;40833;53.238;6.576;2022-12-08T12:57:51;5.20;99.90
54930;DHT22;40833;53.238;6.576;2022-12-08T13:00:19;3.90;99.90
54930;DHT22;40833;53.238;6.576;2022-12-08T13:02:45;3.90;99.90
54930;DHT22;40833;53.238;6.576;2022-12-08T13:05:26;4.00;99.90
54930;DHT22;40833;53.238;6.576;2022-12-08T13:10:30;4.20;99.90
54930;DHT22;40833;53.238;6.576;2022-12-08T13:16:12;3.60;99.90
54930;DHT22;40833;53.238;6.576;2022-12-08T13:18:46;3.40;99.90
54930;DHT22;40833;53.238;6.576;2022-12-08T13:21:15;3.50;99.90
54930;DHT22;40833;53.238;6.576;2022-12-08T13:23:45;5.40;99.90
54930;DHT22;40833;53.238;6.576;2022-12-08T13:26:24;3.00;99.90
54930;DHT22;40833;53.238;6.576;2022-12-08T13:34:00;2.80;99.90
54930;DHT22;40833;53.238;6.576;2022-12-08T13:36:35;2.70;99.90
54930;DHT22;40833;53.238;6.576;2022-12-08T13:39:04;2.60;99.90
54930;DHT22;40833;53.238;6.576;2022-12-08T13:41:43;2.70;99.90
54930;DHT22;40833;53.238;6.576;2022-12-08T13:44:21;2.50;99.90
54930;DHT22;40833;53.238;6.576;2022-12-08T13:46:54;2.50;99.90
54930;DHT22;40833;53.238;6.576;2022-12-08T13:49:34;2.50;99.90
54930;DHT22;40833;53.238;6.576;2022-12-08T13:52:01;2.50;99.90
54930;DHT22;40833;53.238;6.576;2022-12-08T13:54:34;3.50;99.90
54930;DHT22;40833;53.238;6.576;2022-12-08T13:57:01;2.60;99.90
54930;DHT22;40833;53.238;6.576;2022-12-08T13:59:33;5.00;99.90
54930;DHT22;40833;53.238;6.576;2022-12-08T14:02:14;2.70;99.90
54930;DHT22;40833;53.238;6.576;2022-12-08T14:04:43;2.70;99.90
54930;DHT22;40833;53.238;6.576;2022-12-08T14:07:11;2.80;99.90
54930;DHT22;40833;53.238;6.576;2022-12-08T14:09:39;2.80;99.90
54930;DHT22;40833;53.238;6.576;2022-12-08T14:12:11;2.90;99.90
54930;DHT22;40833;53.238;6.576;2022-12-08T14:14:42;2.90;99.90
54930;DHT22;40833;53.238;6.576;2022-12-08T14:17:20;2.80;99.90
54930;DHT22;40833;53.238;6.576;2022-12-08T14:20:05;2.80;99.90
54930;DHT22;40833;53.238;6.576;2022-12-08T14:22:43;2.70;99.90
54930;DHT22;40833;53.238;6.576;2022-12-08T14:25:16;3.30;99.90
54930;DHT22;40833;53.238;6.576;2022-12-08T14:27:42;3.00;99.90
54930;DHT22;40833;53.238;6.576;2022-12-08T14:32:46;2.50;99.90
54930;DHT22;40833;53.238;6.576;2022-12-08T14:35:27;2.50;99.90
54930;DHT22;40833;53.238;6.576;2022-12-08T14:38:14;2.90;99.90
54930;DHT22;40833;53.238;6.576;2022-12-08T14:40:42;5.10;99.90
54930;DHT22;40833;53.238;6.576;2022-12-08T14:53:55;1.90;99.90
54930;DHT22;40833;53.238;6.576;2022-12-08T14:59:12;1.70;99.90
54930;DHT22;40833;53.238;6.576;2022-12-08T15:01:39;1.70;99.90
54930;DHT22;40833;53.238;6.576;2022-12-08T15:06:36;1.50;99.90
54930;DHT22;40833;53.238;6.576;2022-12-08T15:09:25;2.40;99.90
54930;DHT22;40833;53.238;6.576;2022-12-08T15:12:00;1.30;99.90
54930;DHT22;40833;53.238;6.576;2022-12-08T15:14:32;2.10;99.90
54930;DHT22;40833;53.238;6.576;2022-12-08T15:16:58;1.20;99.90
54930;DHT22;40833;53.238;6.576;2022-12-08T15:19:29;1.30;99.90
54930;DHT22;40833;53.238;6.576;2022-12-08T15:21:57;3.10;99.90
54930;DHT22;40833;53.238;6.576;2022-12-08T15:24:26;1.10;99.90
54930;DHT22;40833;53.238;6.576;2022-12-08T15:26:53;1.10;99.90
54930;DHT22;40833;53.238;6.576;2022-12-08T15:29:20;1.20;99.90
54930;DHT22;40833;53.238;6.576;2022-12-08T15:31:46;1.00;99.90
54930;DHT22;40833;53.238;6.576;2022-12-08T15:34:12;0.90;99.90
54930;DHT22;40833;53.238;6.576;2022-12-08T15:36:38;0.90;99.90
54930;DHT22;40833;53.238;6.576;2022-12-08T15:41:44;0.80;99.90
54930;DHT22;40833;53.238;6.576;2022-12-08T15:44:10;1.50;99.90
54930;DHT22;40833;53.238;6.576;2022-12-08T15:46:36;0.70;99.90
54930;DHT22;40833;53.238;6.576;2022-12-08T15:49:01;1.30;99.90
54930;DHT22;40833;53.238;6.576;2022-12-08T15:51:27;3.60;99.90
54930;DHT22;40833;53.238;6.576;2022-12-08T15:53:53;0.50;99.90
54930;DHT22;40833;53.238;6.576;2022-12-08T15:56:18;0.50;99.90
54930;DHT22;40833;53.238;6.576;2022-12-08T15:58:44;0.50;99.90
54930;DHT22;40833;53.238;6.576;2022-12-08T16:01:10;0.50;99.90
54930;DHT22;40833;53.238;6.576;2022-12-08T16:03:35;1.00;99.90
54930;DHT22;40833;53.238;6.576;2022-12-08T16:06:01;0.40;99.90
54930;DHT22;40833;53.238;6.576;2022-12-08T16:08:28;0.30;99.90
54930;DHT22;40833;53.238;6.576;2022-12-08T16:10:55;0.70;99.90
54930;DHT22;40833;53.238;6.576;2022-12-08T16:13:40;1.20;99.90
54930;DHT22;40833;53.238;6.576;2022-12-08T16:16:15;0.20;99.90
54930;DHT22;40833;53.238;6.576;2022-12-08T16:18:46;0.20;99.90
54930;DHT22;40833;53.238;6.576;2022-12-08T16:21:13;0.20;99.90
54930;DHT22;40833;53.238;6.576;2022-12-08T16:23:39;0.40;99.90
54930;DHT22;40833;53.238;6.576;2022-12-08T16:26:05;0.20;99.90
54930;DHT22;40833;53.238;6.576;2022-12-08T16:28:31;0.20;99.90
54930;DHT22;40833;53.238;6.576;2022-12-08T16:30:56;1.30;99.90
54930;DHT22;40833;53.238;6.576;2022-12-08T16:33:23;0.10;99.90
54930;DHT22;40833;53.238;6.576;2022-12-08T16:35:49;2.60;99.90
54930;DHT22;40833;53.238;6.576;2022-12-08T16:38:15;0.00;99.90
54930;DHT22;40833;53.238;6.576;2022-12-08T16:40:47;0.00;99.90
54930;DHT22;40833;53.238;6.576;2022-12-08T16:43:32;-0.10;99.90
54930;DHT22;40833;53.238;6.576;2022-12-08T16:45:58;2.30;99.90
54930;DHT22;40833;53.238;6.576;2022-12-08T16:48:24;1.30;99.90
54930;DHT22;40833;53.238;6.576;2022-12-08T16:50:49;-0.20;99.90
54930;DHT22;40833;53.238;6.576;2022-12-08T16:53:15;-0.20;99.90
54930;DHT22;40833;53.238;6.576;2022-12-08T16:55:45;-0.20;99.90
54930;DHT22;40833;53.238;6.576;2022-12-08T16:58:12;-0.20;99.90
54930;DHT22;40833;53.238;6.576;2022-12-08T17:00:37;-0.20;99.90
54930;DHT22;40833;53.238;6.576;2022-12-08T17:03:04;-0.20;99.90
54930;DHT22;40833;53.238;6.576;2022-12-08T17:05:32;-0.20;99.90
54930;DHT22;40833;53.238;6.576;2022-12-08T17:07:58;-0.30;99.90
54930;DHT22;40833;53.238;6.576;2022-12-08T17:10:27;-0.10;99.90
54930;DHT22;40833;53.238;6.576;2022-12-08T17:12:54;-0.30;99.90
54930;DHT22;40833;53.238;6.576;2022-12-08T17:15:22;-0.40;99.90
54930;DHT22;40833;53.238;6.576;2022-12-08T17:17:48;-0.30;99.90
54930;DHT22;40833;53.238;6.576;2022-12-08T17:20:16;0.20;99.90
54930;DHT22;40833;53.238;6.576;2022-12-08T17:22:43;0.50;99.90
54930;DHT22;40833;53.238;6.576;2022-12-08T17:25:09;0.90;99.90
54930;DHT22;40833;53.238;6.576;2022-12-08T17:27:35;1.40;99.90
54930;DHT22;40833;53.238;6.576;2022-12-08T17:30:02;2.30;99.90
54930;DHT22;40833;53.238;6.576;2022-12-08T17:32:29;-0.30;99.90
54930;DHT22;40833;53.238;6.576;2022-12-08T17:34:54;-0.30;99.90
54930;DHT22;40833;53.238;6.576;2022-12-08T17:37:20;-0.40;99.90
54930;DHT22;40833;53.238;6.576;2022-12-08T17:39:46;-0.30;99.90
54930;DHT22;40833;53.238;6.576;2022-12-08T17:42:11;0.50;99.90
54930;DHT22;40833;53.238;6.576;2022-12-08T17:44:37;1.20;99.90
54930;DHT22;40833;53.238;6.576;2022-12-08T17:47:03;-0.20;99.90
54930;DHT22;40833;53.238;6.576;2022-12-08T17:49:30;-0.40;99.90
54930;DHT22;40833;53.238;6.576;2022-12-08T17:52:03;-0.40;99.90